»·PEaware :: DAL1862 KSNA-KPSP

DAL1862 :: KSNA-KPSP

FLIGHT INFORMATION

Flight Status: Arrived
Operator:
Delta Air Lines
More flights by this operator :: More flights under this callsign
Pilot: Eric G. (5941)
Aircraft: CANADAIR CL-600 CRJ-700
(CRJ7)
More flights by this aircraft type
Origin: KSNA John Wayne-Orange Co
United States
Destination: KPSP Palm Springs Intl
United States
More flights between these airports :: More routes between these airports
Route: +STREL4 TRM
File this flight plan on PilotEdge
Remarks: Computer is having issues. If disconnect that's why. Thanks for PE!
Altitude:
(Current/Filed)
13,000ft
Speed:
(Current/Filed)
250kts
Departed: 30-Sep-17 02:41 PM
Arrived: 30-Sep-17 03:10 PM
Distance/Time
Traveled:
69nm/0:29
Distance/Time
To Go:
Arrived

Flight Plot

Page will automatically refresh every two minutes.

Flight plan parsing failed; only flown route is shown


Map Options




Map Legend


Flown Route
Filed Route
Departure Airport
Arrival Airport
Navaid (VOR, NDB)
Fix

Horizontal Profiles

Position Reports

Time Latitude Longitude Heading Altitude Ground
Speed
30-Sep-17 14:25 33.678077 -117.863185 116 63ft 2kts
30-Sep-17 14:26 33.678125 -117.863303 116 63ft 0kts
30-Sep-17 14:27 33.678125 -117.863303 116 63ft 0kts
30-Sep-17 14:28 33.678125 -117.863303 116 63ft 0kts
30-Sep-17 14:29 33.678125 -117.863303 116 63ft 0kts
30-Sep-17 14:30 33.678125 -117.863303 116 63ft 0kts
30-Sep-17 14:31 33.678060 -117.863145 116 63ft 2kts
30-Sep-17 14:32 33.678186 -117.863448 116 63ft 0kts
30-Sep-17 14:33 33.678185 -117.863447 116 63ft 0kts
30-Sep-17 14:34 33.678184 -117.863445 116 63ft 0kts
30-Sep-17 14:35 33.678184 -117.863443 116 63ft 0kts
30-Sep-17 14:36 33.678183 -117.863442 116 63ft 0kts
30-Sep-17 14:37 33.678182 -117.863440 116 63ft 0kts
30-Sep-17 14:38 33.678182 -117.863438 116 63ft 0kts
30-Sep-17 14:39 33.678181 -117.863436 116 63ft 0kts
30-Sep-17 14:40 33.678180 -117.863435 116 63ft 0kts
30-Sep-17 14:41 33.678226 -117.863302 21 63ft 0kts
30-Sep-17 14:42 33.678401 -117.863216 21 63ft 7kts
30-Sep-17 14:43 33.680557 -117.863044 297 63ft 0kts
30-Sep-17 14:44 33.680719 -117.863409 297 63ft 8kts
30-Sep-17 14:45 33.679468 -117.866405 208 63ft 68kts
30-Sep-17 14:46 33.639961 -117.883945 189 1821ft 183kts
30-Sep-17 14:47 33.587912 -117.895904 189 3904ft 191kts
30-Sep-17 14:48 33.536304 -117.878457 158 6321ft 216kts
30-Sep-17 14:49 33.484333 -117.832683 127 6728ft 268kts
30-Sep-17 14:50 33.477568 -117.753858 88 7685ft 231kts
30-Sep-17 14:51 33.490672 -117.677916 59 8279ft 238kts
30-Sep-17 14:52 33.518268 -117.610716 61 10133ft 229kts
30-Sep-17 14:53 33.555314 -117.535866 48 11832ft 271kts
30-Sep-17 14:54 33.586613 -117.453272 84 13003ft 307kts
30-Sep-17 14:55 33.590383 -117.340437 86 13089ft 352kts
30-Sep-17 14:56 33.593943 -117.219567 86 13011ft 373kts
30-Sep-17 14:57 33.597980 -117.094463 86 12998ft 377kts
30-Sep-17 14:58 33.602305 -116.968414 86 12988ft 377kts
30-Sep-17 14:59 33.606802 -116.842597 86 12971ft 379kts
30-Sep-17 15:00 33.611095 -116.728694 86 12508ft 362kts
30-Sep-17 15:01 33.615740 -116.617435 86 11094ft 303kts
30-Sep-17 15:02 33.620028 -116.528646 86 11043ft 251kts
30-Sep-17 15:03 33.620649 -116.439434 90 10975ft 268kts
30-Sep-17 15:04 33.620405 -116.353793 90 10954ft 250kts
30-Sep-17 15:05 33.620695 -116.269095 90 9023ft 244kts
30-Sep-17 15:06 33.627351 -116.192202 68 8912ft 226kts
30-Sep-17 15:07 33.667737 -116.207048 291 7654ft 203kts
30-Sep-17 15:08 33.688386 -116.273351 287 6052ft 236kts
30-Sep-17 15:09 33.701102 -116.329959 270 4663ft 230kts
30-Sep-17 15:10 33.724628 -116.409254 305 3514ft 211kts
30-Sep-17 15:11 33.766715 -116.451511 322 2190ft 167kts
30-Sep-17 15:12 33.794014 -116.475381 322 1387ft 138kts
30-Sep-17 15:13 33.828029 -116.506180 323 484ft 104kts
30-Sep-17 15:14 33.833095 -116.511884 228 484ft 0kts
30-Sep-17 15:15 33.830280 -116.510296 142 484ft 28kts
30-Sep-17 15:16 33.825214 -116.506966 161 484ft 19kts
30-Sep-17 15:17 33.823902 -116.506501 187 484ft 0kts
30-Sep-17 15:18 33.823898 -116.506502 187 484ft 0kts

Navigation Log

Ident Type
Flight plan parsing failed, navigation log unavailable